sensor_id;sensor_type;location;lat;lon;timestamp;pressure;altitude;pressure_sealevel;temperature;humidity
43119;BME280;28729;49.838;8.650;2023-07-20T00:03:21;99568.44;;;19.59;68.05
43119;BME280;28729;49.838;8.650;2023-07-20T00:07:26;99573.66;;;19.52;69.13
43119;BME280;28729;49.838;8.650;2023-07-20T00:11:28;99574.56;;;19.47;68.84
43119;BME280;28729;49.838;8.650;2023-07-20T00:15:30;99570.78;;;19.43;69.45
43119;BME280;28729;49.838;8.650;2023-07-20T00:19:32;99567.78;;;19.40;69.63
43119;BME280;28729;49.838;8.650;2023-07-20T00:23:33;99569.69;;;19.30;69.75
43119;BME280;28729;49.838;8.650;2023-07-20T00:27:37;99568.25;;;19.19;69.79
43119;BME280;28729;49.838;8.650;2023-07-20T00:31:38;99573.72;;;19.10;70.13
43119;BME280;28729;49.838;8.650;2023-07-20T00:35:40;99571.03;;;19.05;70.62
43119;BME280;28729;49.838;8.650;2023-07-20T00:39:42;99574.97;;;19.04;70.73
43119;BME280;28729;49.838;8.650;2023-07-20T00:43:43;99571.03;;;19.05;72.57
43119;BME280;28729;49.838;8.650;2023-07-20T00:47:46;99569.41;;;19.04;74.46
43119;BME280;28729;49.838;8.650;2023-07-20T00:51:48;99571.66;;;19.02;74.90
43119;BME280;28729;49.838;8.650;2023-07-20T00:55:51;99581.00;;;18.98;76.04
43119;BME280;28729;49.838;8.650;2023-07-20T00:59:53;99578.09;;;18.89;76.57
43119;BME280;28729;49.838;8.650;2023-07-20T01:03:55;99576.13;;;18.76;77.04
43119;BME280;28729;49.838;8.650;2023-07-20T01:07:59;99578.03;;;18.61;78.03
43119;BME280;28729;49.838;8.650;2023-07-20T01:12:08;99587.84;;;18.45;78.94
43119;BME280;28729;49.838;8.650;2023-07-20T01:16:13;99581.50;;;18.26;79.83
43119;BME280;28729;49.838;8.650;2023-07-20T01:20:16;99578.16;;;18.10;81.60
43119;BME280;28729;49.838;8.650;2023-07-20T01:24:24;99575.13;;;17.92;82.61
43119;BME280;28729;49.838;8.650;2023-07-20T01:33:11;99585.06;;;17.61;86.19
43119;BME280;28729;49.838;8.650;2023-07-20T01:37:15;99578.28;;;17.48;87.37
43119;BME280;28729;49.838;8.650;2023-07-20T01:41:18;99582.06;;;17.38;88.37
43119;BME280;28729;49.838;8.650;2023-07-20T01:45:20;99581.38;;;17.27;89.97
43119;BME280;28729;49.838;8.650;2023-07-20T01:49:22;99584.53;;;17.21;90.49
43119;BME280;28729;49.838;8.650;2023-07-20T01:53:24;99579.13;;;17.11;91.67
43119;BME280;28729;49.838;8.650;2023-07-20T01:57:25;99576.97;;;17.02;92.31
43119;BME280;28729;49.838;8.650;2023-07-20T02:01:27;99584.63;;;16.92;93.54
43119;BME280;28729;49.838;8.650;2023-07-20T02:05:30;99587.53;;;16.81;94.29
43119;BME280;28729;49.838;8.650;2023-07-20T02:09:32;99582.59;;;16.73;94.91
43119;BME280;28729;49.838;8.650;2023-07-20T02:13:33;99591.00;;;16.68;96.67
43119;BME280;28729;49.838;8.650;2023-07-20T02:17:35;99584.66;;;16.62;97.60
43119;BME280;28729;49.838;8.650;2023-07-20T02:21:37;99578.63;;;16.55;98.14
43119;BME280;28729;49.838;8.650;2023-07-20T02:25:40;99583.41;;;16.50;99.02
43119;BME280;28729;49.838;8.650;2023-07-20T02:29:42;99594.59;;;16.45;100.00
43119;BME280;28729;49.838;8.650;2023-07-20T02:33:45;99590.19;;;16.38;100.00
43119;BME280;28729;49.838;8.650;2023-07-20T02:37:47;99583.56;;;16.34;100.00
43119;BME280;28729;49.838;8.650;2023-07-20T02:41:49;99589.72;;;16.31;100.00
43119;BME280;28729;49.838;8.650;2023-07-20T02:45:53;99586.16;;;16.26;100.00
43119;BME280;28729;49.838;8.650;2023-07-20T02:49:54;99595.69;;;16.20;100.00
43119;BME280;28729;49.838;8.650;2023-07-20T02:53:56;99589.34;;;16.14;100.00
43119;BME280;28729;49.838;8.650;2023-07-20T02:57:58;99596.06;;;16.08;100.00
43119;BME280;28729;49.838;8.650;2023-07-20T03:02:00;99596.09;;;16.03;100.00
43119;BME280;28729;49.838;8.650;2023-07-20T03:06:02;99597.81;;;15.99;100.00
43119;BME280;28729;49.838;8.650;2023-07-20T03:10:04;99595.06;;;15.93;100.00
43119;BME280;28729;49.838;8.650;2023-07-20T03:14:08;99603.97;;;15.90;100.00
43119;BME280;28729;49.838;8.650;2023-07-20T03:18:09;99602.59;;;15.88;100.00
43119;BME280;28729;49.838;8.650;2023-07-20T03:22:12;99603.50;;;15.83;100.00
43119;BME280;28729;49.838;8.650;2023-07-20T03:26:13;99609.91;;;15.79;100.00
43119;BME280;28729;49.838;8.650;2023-07-20T03:30:15;99604.13;;;15.70;100.00
43119;BME280;28729;49.838;8.650;2023-07-20T03:34:17;99612.50;;;15.65;100.00
43119;BME280;28729;49.838;8.650;2023-07-20T03:38:19;99612.22;;;15.61;100.00
43119;BME280;28729;49.838;8.650;2023-07-20T03:42:21;99608.63;;;15.61;100.00
43119;BME280;28729;49.838;8.650;2023-07-20T03:46:23;99614.47;;;15.59;100.00
43119;BME280;28729;49.838;8.650;2023-07-20T03:50:25;99608.09;;;15.59;100.00
43119;BME280;28729;49.838;8.650;2023-07-20T03:54:27;99606.41;;;15.58;100.00
43119;BME280;28729;49.838;8.650;2023-07-20T03:58:29;99613.09;;;15.57;100.00
43119;BME280;28729;49.838;8.650;2023-07-20T04:02:32;99614.75;;;15.58;100.00
43119;BME280;28729;49.838;8.650;2023-07-20T04:06:34;99610.31;;;15.57;100.00
43119;BME280;28729;49.838;8.650;2023-07-20T04:10:35;99612.28;;;15.56;100.00
43119;BME280;28729;49.838;8.650;2023-07-20T04:14:37;99607.53;;;15.57;100.00
43119;BME280;28729;49.838;8.650;2023-07-20T04:18:39;99612.53;;;15.60;100.00
43119;BME280;28729;49.838;8.650;2023-07-20T04:22:41;99616.94;;;15.61;100.00
43119;BME280;28729;49.838;8.650;2023-07-20T04:26:46;99619.72;;;15.61;100.00
43119;BME280;28729;49.838;8.650;2023-07-20T04:30:49;99618.63;;;15.62;100.00
43119;BME280;28729;49.838;8.650;2023-07-20T04:34:53;99619.16;;;15.64;100.00
43119;BME280;28729;49.838;8.650;2023-07-20T04:38:55;99627.75;;;15.67;100.00
43119;BME280;28729;49.838;8.650;2023-07-20T04:42:57;99628.63;;;15.68;100.00
43119;BME280;28729;49.838;8.650;2023-07-20T04:46:59;99636.06;;;15.72;100.00
43119;BME280;28729;49.838;8.650;2023-07-20T04:51:03;99632.44;;;15.77;100.00
43119;BME280;28729;49.838;8.650;2023-07-20T04:55:05;99630.19;;;15.79;100.00
43119;BME280;28729;49.838;8.650;2023-07-20T04:59:07;99635.72;;;15.84;100.00
43119;BME280;28729;49.838;8.650;2023-07-20T05:03:09;99631.25;;;15.88;100.00
43119;BME280;28729;49.838;8.650;2023-07-20T05:07:11;99630.09;;;15.94;100.00
43119;BME280;28729;49.838;8.650;2023-07-20T05:11:13;99637.25;;;16.01;100.00
43119;BME280;28729;49.838;8.650;2023-07-20T05:15:15;99638.06;;;16.06;100.00
43119;BME280;28729;49.838;8.650;2023-07-20T05:19:17;99643.28;;;16.13;100.00
43119;BME280;28729;49.838;8.650;2023-07-20T05:23:19;99638.19;;;16.20;100.00
43119;BME280;28729;49.838;8.650;2023-07-20T05:27:24;99637.84;;;16.27;100.00
43119;BME280;28729;49.838;8.650;2023-07-20T05:31:26;99636.69;;;16.33;100.00
43119;BME280;28729;49.838;8.650;2023-07-20T05:35:28;99640.81;;;16.40;100.00
43119;BME280;28729;49.838;8.650;2023-07-20T05:39:32;99642.38;;;16.52;100.00
43119;BME280;28729;49.838;8.650;2023-07-20T05:43:33;99643.38;;;16.61;100.00
43119;BME280;28729;49.838;8.650;2023-07-20T05:47:35;99647.13;;;16.75;100.00
43119;BME280;28729;49.838;8.650;2023-07-20T05:51:39;99647.28;;;16.89;100.00
43119;BME280;28729;49.838;8.650;2023-07-20T05:55:41;99651.31;;;17.02;99.01
43119;BME280;28729;49.838;8.650;2023-07-20T05:59:43;99643.38;;;17.14;98.00
43119;BME280;28729;49.838;8.650;2023-07-20T06:03:46;99653.78;;;17.27;96.58
43119;BME280;28729;49.838;8.650;2023-07-20T06:07:47;99651.09;;;17.41;95.77
43119;BME280;28729;49.838;8.650;2023-07-20T06:11:49;99655.63;;;17.56;94.99
43119;BME280;28729;49.838;8.650;2023-07-20T06:15:51;99653.75;;;17.70;94.29
43119;BME280;28729;49.838;8.650;2023-07-20T06:19:53;99655.28;;;17.82;94.12
43119;BME280;28729;49.838;8.650;2023-07-20T06:23:55;99661.53;;;17.92;92.53
43119;BME280;28729;49.838;8.650;2023-07-20T06:27:56;99658.59;;;18.03;92.40
43119;BME280;28729;49.838;8.650;2023-07-20T06:31:58;99664.75;;;18.18;92.14
43119;BME280;28729;49.838;8.650;2023-07-20T06:36:01;99668.41;;;18.33;91.93
43119;BME280;28729;49.838;8.650;2023-07-20T06:40:04;99665.91;;;18.50;90.33
43119;BME280;28729;49.838;8.650;2023-07-20T06:44:09;99666.72;;;18.83;87.90
43119;BME280;28729;49.838;8.650;2023-07-20T06:48:11;99662.88;;;19.21;86.56
43119;BME280;28729;49.838;8.650;2023-07-20T06:52:12;99661.00;;;19.30;84.56
43119;BME280;28729;49.838;8.650;2023-07-20T06:56:14;99676.03;;;19.34;83.77
43119;BME280;28729;49.838;8.650;2023-07-20T07:00:16;99670.13;;;19.49;83.04
43119;BME280;28729;49.838;8.650;2023-07-20T07:04:20;99671.97;;;19.68;81.68
43119;BME280;28729;49.838;8.650;2023-07-20T07:08:21;99676.84;;;19.98;81.34
43119;BME280;28729;49.838;8.650;2023-07-20T07:12:23;99671.94;;;20.63;78.67
43119;BME280;28729;49.838;8.650;2023-07-20T07:16:25;99679.44;;;21.16;73.91
43119;BME280;28729;49.838;8.650;2023-07-20T07:20:27;99683.34;;;21.37;72.42
43119;BME280;28729;49.838;8.650;2023-07-20T07:24:29;99683.13;;;21.34;72.06
43119;BME280;28729;49.838;8.650;2023-07-20T07:28:36;99685.59;;;21.35;71.53
43119;BME280;28729;49.838;8.650;2023-07-20T07:32:38;99682.41;;;21.20;70.79
43119;BME280;28729;49.838;8.650;2023-07-20T07:36:39;99684.91;;;21.21;71.56
43119;BME280;28729;49.838;8.650;2023-07-20T07:40:42;99685.81;;;21.08;71.84
43119;BME280;28729;49.838;8.650;2023-07-20T07:44:44;99681.00;;;21.00;72.82
43119;BME280;28729;49.838;8.650;2023-07-20T07:48:46;99691.75;;;21.06;71.00
43119;BME280;28729;49.838;8.650;2023-07-20T07:52:49;99676.44;;;21.52;69.73
43119;BME280;28729;49.838;8.650;2023-07-20T07:56:52;99689.88;;;21.99;67.26
43119;BME280;28729;49.838;8.650;2023-07-20T08:00:55;99682.63;;;22.06;66.32
43119;BME280;28729;49.838;8.650;2023-07-20T08:04:57;99692.97;;;21.71;67.13
43119;BME280;28729;49.838;8.650;2023-07-20T08:08:59;99689.00;;;21.55;68.56
43119;BME280;28729;49.838;8.650;2023-07-20T08:13:03;99688.69;;;21.82;67.27
43119;BME280;28729;49.838;8.650;2023-07-20T08:17:05;99679.81;;;22.15;65.79
43119;BME280;28729;49.838;8.650;2023-07-20T08:21:08;99686.28;;;22.33;64.41
43119;BME280;28729;49.838;8.650;2023-07-20T08:25:10;99679.00;;;22.41;63.43
43119;BME280;28729;49.838;8.650;2023-07-20T08:29:11;99675.03;;;22.42;63.14
43119;BME280;28729;49.838;8.650;2023-07-20T08:33:14;99671.69;;;22.57;63.02
43119;BME280;28729;49.838;8.650;2023-07-20T08:37:16;99681.31;;;22.47;61.86
43119;BME280;28729;49.838;8.650;2023-07-20T08:41:19;99681.28;;;22.56;61.69
43119;BME280;28729;49.838;8.650;2023-07-20T08:45:22;99679.50;;;22.43;61.64
43119;BME280;28729;49.838;8.650;2023-07-20T08:49:23;99686.44;;;22.37;60.90
43119;BME280;28729;49.838;8.650;2023-07-20T08:53:27;99676.34;;;22.62;60.33
43119;BME280;28729;49.838;8.650;2023-07-20T08:57:32;99677.72;;;22.94;58.73
43119;BME280;28729;49.838;8.650;2023-07-20T09:01:36;99674.59;;;22.87;58.92
43119;BME280;28729;49.838;8.650;2023-07-20T09:05:41;99672.97;;;22.94;59.65
43119;BME280;28729;49.838;8.650;2023-07-20T09:09:46;99668.22;;;23.25;58.31
43119;BME280;28729;49.838;8.650;2023-07-20T09:14:08;99678.84;;;23.78;54.33
43119;BME280;28729;49.838;8.650;2023-07-20T09:18:11;99665.59;;;23.79;55.47
43119;BME280;28729;49.838;8.650;2023-07-20T09:22:13;99668.53;;;23.82;54.59
43119;BME280;28729;49.838;8.650;2023-07-20T09:26:15;99667.13;;;23.67;54.59
43119;BME280;28729;49.838;8.650;2023-07-20T09:30:18;99673.59;;;23.68;55.09
43119;BME280;28729;49.838;8.650;2023-07-20T09:34:20;99668.16;;;23.63;54.22
43119;BME280;28729;49.838;8.650;2023-07-20T09:38:26;99661.28;;;24.02;53.14
43119;BME280;28729;49.838;8.650;2023-07-20T09:42:28;99671.78;;;23.93;52.58
43119;BME280;28729;49.838;8.650;2023-07-20T09:46:46;99662.09;;;23.82;50.86
43119;BME280;28729;49.838;8.650;2023-07-20T09:50:53;99662.94;;;24.24;48.69
43119;BME280;28729;49.838;8.650;2023-07-20T09:54:56;99660.16;;;24.37;48.29
43119;BME280;28729;49.838;8.650;2023-07-20T09:58:59;99656.31;;;24.20;49.72
43119;BME280;28729;49.838;8.650;2023-07-20T10:03:03;99655.31;;;24.58;48.73
43119;BME280;28729;49.838;8.650;2023-07-20T10:07:09;99646.13;;;24.94;46.69
43119;BME280;28729;49.838;8.650;2023-07-20T10:11:15;99639.19;;;25.04;46.14
43119;BME280;28729;49.838;8.650;2023-07-20T10:23:51;99635.34;;;25.82;42.79
43119;BME280;28729;49.838;8.650;2023-07-20T10:27:53;99623.56;;;25.68;42.68
43119;BME280;28729;49.838;8.650;2023-07-20T10:31:56;99630.28;;;25.51;42.92
43119;BME280;28729;49.838;8.650;2023-07-20T10:36:04;99630.28;;;25.51;43.17
43119;BME280;28729;49.838;8.650;2023-07-20T10:40:32;99630.72;;;25.78;42.79
43119;BME280;28729;49.838;8.650;2023-07-20T10:44:37;99621.91;;;25.91;42.11
43119;BME280;28729;49.838;8.650;2023-07-20T10:49:03;99617.44;;;25.78;41.51
43119;BME280;28729;49.838;8.650;2023-07-20T10:53:11;99613.53;;;25.95;41.93
43119;BME280;28729;49.838;8.650;2023-07-20T10:57:31;99599.81;;;26.37;41.14
43119;BME280;28729;49.838;8.650;2023-07-20T11:01:36;99605.16;;;26.55;40.99
43119;BME280;28729;49.838;8.650;2023-07-20T11:05:39;99602.63;;;26.22;40.98
43119;BME280;28729;49.838;8.650;2023-07-20T11:09:43;99604.44;;;26.58;41.01
43119;BME280;28729;49.838;8.650;2023-07-20T11:14:00;99584.78;;;26.77;39.88
43119;BME280;28729;49.838;8.650;2023-07-20T11:18:14;99585.81;;;27.36;38.75
43119;BME280;28729;49.838;8.650;2023-07-20T11:22:17;99579.09;;;27.60;35.86
43119;BME280;28729;49.838;8.650;2023-07-20T11:26:19;99588.56;;;27.48;36.17
43119;BME280;28729;49.838;8.650;2023-07-20T11:30:21;99581.41;;;27.19;37.77
43119;BME280;28729;49.838;8.650;2023-07-20T11:34:24;99574.53;;;26.89;38.11
43119;BME280;28729;49.838;8.650;2023-07-20T11:38:25;99581.72;;;26.10;38.54
43119;BME280;28729;49.838;8.650;2023-07-20T11:42:27;99583.19;;;26.20;38.55
43119;BME280;28729;49.838;8.650;2023-07-20T11:46:33;99578.09;;;26.86;38.14
43119;BME280;28729;49.838;8.650;2023-07-20T11:50:39;99578.41;;;26.80;37.89
43119;BME280;28729;49.838;8.650;2023-07-20T11:54:42;99576.31;;;26.33;38.55
43119;BME280;28729;49.838;8.650;2023-07-20T11:58:49;99566.25;;;26.20;39.11
43119;BME280;28729;49.838;8.650;2023-07-20T12:02:53;99571.63;;;26.25;39.04
43119;BME280;28729;49.838;8.650;2023-07-20T12:06:55;99570.50;;;26.14;39.20
43119;BME280;28729;49.838;8.650;2023-07-20T12:10:57;99566.53;;;26.15;38.94
43119;BME280;28729;49.838;8.650;2023-07-20T12:15:19;99554.03;;;26.16;39.34
43119;BME280;28729;49.838;8.650;2023-07-20T12:19:25;99551.44;;;25.95;39.34
43119;BME280;28729;49.838;8.650;2023-07-20T12:23:34;99557.00;;;25.67;40.13
43119;BME280;28729;49.838;8.650;2023-07-20T12:27:36;99564.19;;;25.77;40.37
43119;BME280;28729;49.838;8.650;2023-07-20T12:31:39;99557.78;;;25.92;40.56
43119;BME280;28729;49.838;8.650;2023-07-20T12:35:41;99560.72;;;25.96;40.62
43119;BME280;28729;49.838;8.650;2023-07-20T12:39:45;99551.78;;;25.94;39.97
43119;BME280;28729;49.838;8.650;2023-07-20T12:43:48;99560.00;;;25.99;40.22
43119;BME280;28729;49.838;8.650;2023-07-20T12:47:52;99552.47;;;26.03;40.35
43119;BME280;28729;49.838;8.650;2023-07-20T12:51:54;99553.00;;;26.36;40.28
43119;BME280;28729;49.838;8.650;2023-07-20T12:55:55;99548.56;;;27.85;38.43
43119;BME280;28729;49.838;8.650;2023-07-20T12:59:57;99536.00;;;29.74;34.61
43119;BME280;28729;49.838;8.650;2023-07-20T13:03:59;99524.09;;;31.21;32.76
43119;BME280;28729;49.838;8.650;2023-07-20T13:08:04;99523.47;;;32.87;30.87
43119;BME280;28729;49.838;8.650;2023-07-20T13:12:10;99519.09;;;34.24;27.79
43119;BME280;28729;49.838;8.650;2023-07-20T13:16:12;99501.22;;;35.55;26.44
43119;BME280;28729;49.838;8.650;2023-07-20T13:20:14;99503.19;;;36.26;25.36
43119;BME280;28729;49.838;8.650;2023-07-20T13:24:16;99495.66;;;36.63;24.17
43119;BME280;28729;49.838;8.650;2023-07-20T13:28:18;99501.19;;;35.58;24.79
43119;BME280;28729;49.838;8.650;2023-07-20T13:32:20;99504.22;;;33.66;26.32
43119;BME280;28729;49.838;8.650;2023-07-20T13:36:23;99504.91;;;31.81;28.55
43119;BME280;28729;49.838;8.650;2023-07-20T13:40:24;99513.13;;;30.72;29.73
43119;BME280;28729;49.838;8.650;2023-07-20T13:44:26;99498.06;;;30.23;30.38
43119;BME280;28729;49.838;8.650;2023-07-20T13:48:31;99494.94;;;30.35;29.91
43119;BME280;28729;49.838;8.650;2023-07-20T13:52:38;99487.44;;;29.83;30.80
43119;BME280;28729;49.838;8.650;2023-07-20T13:56:42;99485.06;;;29.01;31.82
43119;BME280;28729;49.838;8.650;2023-07-20T14:00:44;99486.91;;;28.63;32.65
43119;BME280;28729;49.838;8.650;2023-07-20T14:04:49;99487.25;;;28.39;33.62
43119;BME280;28729;49.838;8.650;2023-07-20T14:09:13;99493.53;;;28.29;33.05
43119;BME280;28729;49.838;8.650;2023-07-20T14:13:15;99476.41;;;30.15;31.78
43119;BME280;28729;49.838;8.650;2023-07-20T14:17:17;99463.47;;;31.90;29.86
43119;BME280;28729;49.838;8.650;2023-07-20T14:21:21;99465.16;;;32.20;29.20
43119;BME280;28729;49.838;8.650;2023-07-20T14:25:26;99463.53;;;33.19;27.48
43119;BME280;28729;49.838;8.650;2023-07-20T14:29:30;99451.38;;;33.99;25.96
43119;BME280;28729;49.838;8.650;2023-07-20T14:33:33;99452.56;;;33.00;26.41
43119;BME280;28729;49.838;8.650;2023-07-20T14:37:36;99450.91;;;32.38;26.44
43119;BME280;28729;49.838;8.650;2023-07-20T14:41:39;99445.00;;;31.52;27.58
43119;BME280;28729;49.838;8.650;2023-07-20T14:45:41;99437.72;;;30.88;28.71
43119;BME280;28729;49.838;8.650;2023-07-20T14:49:43;99432.13;;;30.51;28.87
43119;BME280;28729;49.838;8.650;2023-07-20T14:53:46;99429.44;;;30.73;28.71
43119;BME280;28729;49.838;8.650;2023-07-20T14:57:48;99427.59;;;30.43;28.96
43119;BME280;28729;49.838;8.650;2023-07-20T15:01:50;99428.75;;;29.97;28.81
43119;BME280;28729;49.838;8.650;2023-07-20T15:05:56;99417.25;;;30.20;29.56
43119;BME280;28729;49.838;8.650;2023-07-20T15:09:58;99414.63;;;31.01;28.22
43119;BME280;28729;49.838;8.650;2023-07-20T15:13:59;99413.34;;;30.91;28.57
43119;BME280;28729;49.838;8.650;2023-07-20T15:18:01;99408.97;;;32.35;27.08
43119;BME280;28729;49.838;8.650;2023-07-20T15:22:04;99406.44;;;34.07;25.35
43119;BME280;28729;49.838;8.650;2023-07-20T15:26:11;99402.94;;;34.37;24.59
43119;BME280;28729;49.838;8.650;2023-07-20T15:30:12;99393.69;;;33.45;25.53
43119;BME280;28729;49.838;8.650;2023-07-20T15:34:35;99393.91;;;32.31;26.55
43119;BME280;28729;49.838;8.650;2023-07-20T15:38:37;99381.88;;;31.36;26.43
43119;BME280;28729;49.838;8.650;2023-07-20T15:42:44;99377.31;;;30.58;27.10
43119;BME280;28729;49.838;8.650;2023-07-20T15:46:54;99381.00;;;29.69;28.19
43119;BME280;28729;49.838;8.650;2023-07-20T15:50:56;99366.41;;;29.37;28.34
43119;BME280;28729;49.838;8.650;2023-07-20T15:54:58;99364.13;;;29.50;27.86
43119;BME280;28729;49.838;8.650;2023-07-20T15:58:59;99365.56;;;29.33;28.41
43119;BME280;28729;49.838;8.650;2023-07-20T16:03:01;99360.94;;;28.91;28.55
43119;BME280;28729;49.838;8.650;2023-07-20T16:07:03;99360.06;;;28.34;29.68
43119;BME280;28729;49.838;8.650;2023-07-20T16:11:08;99354.63;;;27.99;29.91
43119;BME280;28729;49.838;8.650;2023-07-20T16:15:11;99357.84;;;27.55;30.55
43119;BME280;28729;49.838;8.650;2023-07-20T16:19:12;99356.16;;;27.11;30.92
43119;BME280;28729;49.838;8.650;2023-07-20T16:23:14;99349.06;;;26.82;31.47
43119;BME280;28729;49.838;8.650;2023-07-20T16:27:16;99344.75;;;26.53;32.01
43119;BME280;28729;49.838;8.650;2023-07-20T16:31:18;99353.16;;;26.33;32.34
43119;BME280;28729;49.838;8.650;2023-07-20T16:35:20;99345.88;;;26.17;32.30
43119;BME280;28729;49.838;8.650;2023-07-20T16:39:42;99344.44;;;26.07;32.66
43119;BME280;28729;49.838;8.650;2023-07-20T16:43:48;99352.03;;;26.03;33.25
43119;BME280;28729;49.838;8.650;2023-07-20T16:47:53;99344.97;;;25.81;34.03
43119;BME280;28729;49.838;8.650;2023-07-20T16:51:57;99352.31;;;25.69;34.08
43119;BME280;28729;49.838;8.650;2023-07-20T16:55:59;99344.41;;;25.59;34.67
43119;BME280;28729;49.838;8.650;2023-07-20T17:00:01;99350.69;;;25.53;34.99
43119;BME280;28729;49.838;8.650;2023-07-20T17:04:03;99347.47;;;25.54;34.57
43119;BME280;28729;49.838;8.650;2023-07-20T17:08:05;99347.56;;;25.58;34.51
43119;BME280;28729;49.838;8.650;2023-07-20T17:12:08;99346.31;;;25.71;34.81
43119;BME280;28729;49.838;8.650;2023-07-20T17:16:09;99346.50;;;25.78;35.18
43119;BME280;28729;49.838;8.650;2023-07-20T17:20:12;99341.66;;;25.63;34.89
43119;BME280;28729;49.838;8.650;2023-07-20T17:24:17;99345.69;;;25.62;35.07
43119;BME280;28729;49.838;8.650;2023-07-20T17:28:22;99342.31;;;25.72;35.18
43119;BME280;28729;49.838;8.650;2023-07-20T17:32:28;99341.09;;;25.85;34.75
43119;BME280;28729;49.838;8.650;2023-07-20T17:36:29;99339.06;;;25.70;35.47
43119;BME280;28729;49.838;8.650;2023-07-20T17:40:34;99331.19;;;25.48;35.38
43119;BME280;28729;49.838;8.650;2023-07-20T17:44:37;99327.63;;;25.35;35.61
43119;BME280;28729;49.838;8.650;2023-07-20T17:48:39;99329.88;;;25.29;35.32
43119;BME280;28729;49.838;8.650;2023-07-20T17:52:41;99330.28;;;25.15;35.92
43119;BME280;28729;49.838;8.650;2023-07-20T17:56:43;99333.94;;;25.04;35.90
43119;BME280;28729;49.838;8.650;2023-07-20T18:00:45;99332.25;;;24.87;36.27
43119;BME280;28729;49.838;8.650;2023-07-20T18:04:47;99326.69;;;24.62;36.04
43119;BME280;28729;49.838;8.650;2023-07-20T18:08:49;99335.75;;;24.43;36.68
43119;BME280;28729;49.838;8.650;2023-07-20T18:12:51;99331.97;;;24.27;37.26
43119;BME280;28729;49.838;8.650;2023-07-20T18:16:53;99334.69;;;24.11;37.71
43119;BME280;28729;49.838;8.650;2023-07-20T18:20:55;99333.06;;;23.98;37.79
43119;BME280;28729;49.838;8.650;2023-07-20T18:24:57;99337.84;;;23.85;38.81
43119;BME280;28729;49.838;8.650;2023-07-20T18:28:59;99338.09;;;23.80;38.89
43119;BME280;28729;49.838;8.650;2023-07-20T18:33:02;99342.31;;;23.74;38.92
43119;BME280;28729;49.838;8.650;2023-07-20T18:37:05;99341.06;;;23.62;39.31
43119;BME280;28729;49.838;8.650;2023-07-20T18:41:07;99347.69;;;23.46;39.35
43119;BME280;28729;49.838;8.650;2023-07-20T18:45:09;99353.03;;;23.26;39.65
43119;BME280;28729;49.838;8.650;2023-07-20T18:49:11;99349.22;;;23.10;40.35
43119;BME280;28729;49.838;8.650;2023-07-20T18:53:12;99352.50;;;22.91;41.42
43119;BME280;28729;49.838;8.650;2023-07-20T18:57:14;99340.91;;;22.71;41.11
43119;BME280;28729;49.838;8.650;2023-07-20T19:01:16;99344.53;;;22.51;42.07
43119;BME280;28729;49.838;8.650;2023-07-20T19:05:18;99350.94;;;22.30;42.74
43119;BME280;28729;49.838;8.650;2023-07-20T19:09:20;99348.06;;;22.10;43.05
43119;BME280;28729;49.838;8.650;2023-07-20T19:13:22;99348.97;;;21.93;43.73
43119;BME280;28729;49.838;8.650;2023-07-20T19:17:24;99347.56;;;21.78;43.96
43119;BME280;28729;49.838;8.650;2023-07-20T19:21:27;99352.19;;;21.65;45.40
43119;BME280;28729;49.838;8.650;2023-07-20T19:25:29;99356.53;;;21.54;45.64
43119;BME280;28729;49.838;8.650;2023-07-20T19:29:33;99356.88;;;21.44;46.79
43119;BME280;28729;49.838;8.650;2023-07-20T19:33:35;99363.94;;;21.32;46.76
43119;BME280;28729;49.838;8.650;2023-07-20T19:37:37;99364.31;;;21.22;47.05
43119;BME280;28729;49.838;8.650;2023-07-20T19:41:39;99371.91;;;21.13;47.66
43119;BME280;28729;49.838;8.650;2023-07-20T19:45:41;99376.69;;;21.04;48.39
43119;BME280;28729;49.838;8.650;2023-07-20T19:49:43;99377.19;;;20.97;48.77
43119;BME280;28729;49.838;8.650;2023-07-20T19:53:44;99376.03;;;20.89;49.01
43119;BME280;28729;49.838;8.650;2023-07-20T19:57:49;99375.88;;;20.86;49.87
43119;BME280;28729;49.838;8.650;2023-07-20T20:01:51;99375.72;;;20.82;50.55
43119;BME280;28729;49.838;8.650;2023-07-20T20:05:53;99375.34;;;20.75;50.49
43119;BME280;28729;49.838;8.650;2023-07-20T20:09:55;99371.22;;;20.73;51.75
43119;BME280;28729;49.838;8.650;2023-07-20T20:13:57;99370.25;;;20.68;50.81
43119;BME280;28729;49.838;8.650;2023-07-20T20:17:59;99364.50;;;20.65;50.90
43119;BME280;28729;49.838;8.650;2023-07-20T20:22:01;99368.13;;;20.65;51.34
43119;BME280;28729;49.838;8.650;2023-07-20T20:26:06;99366.78;;;20.63;50.73
43119;BME280;28729;49.838;8.650;2023-07-20T20:30:09;99369.41;;;20.59;51.65
43119;BME280;28729;49.838;8.650;2023-07-20T20:34:11;99375.34;;;20.58;51.42
43119;BME280;28729;49.838;8.650;2023-07-20T20:38:13;99363.47;;;20.52;51.75
43119;BME280;28729;49.838;8.650;2023-07-20T20:42:15;99362.13;;;20.49;51.75
43119;BME280;28729;49.838;8.650;2023-07-20T20:46:17;99360.47;;;20.48;51.93
43119;BME280;28729;49.838;8.650;2023-07-20T20:50:22;99360.31;;;20.45;52.07
43119;BME280;28729;49.838;8.650;2023-07-20T20:54:24;99362.94;;;20.41;52.73
43119;BME280;28729;49.838;8.650;2023-07-20T20:58:26;99359.47;;;20.36;52.48
43119;BME280;28729;49.838;8.650;2023-07-20T21:02:28;99363.75;;;20.33;53.52
43119;BME280;28729;49.838;8.650;2023-07-20T21:06:30;99359.31;;;20.32;53.53
43119;BME280;28729;49.838;8.650;2023-07-20T21:10:32;99358.16;;;20.33;53.35
43119;BME280;28729;49.838;8.650;2023-07-20T21:14:35;99362.09;;;20.32;53.80
43119;BME280;28729;49.838;8.650;2023-07-20T21:18:36;99352.38;;;20.30;53.41
43119;BME280;28729;49.838;8.650;2023-07-20T21:22:39;99345.78;;;20.25;53.66
43119;BME280;28729;49.838;8.650;2023-07-20T21:26:41;99339.69;;;20.23;54.36
43119;BME280;28729;49.838;8.650;2023-07-20T21:30:44;99351.72;;;20.24;54.27
43119;BME280;28729;49.838;8.650;2023-07-20T21:34:46;99344.47;;;20.23;54.21
43119;BME280;28729;49.838;8.650;2023-07-20T21:38:48;99345.59;;;20.22;53.78